createdAt,value
2022-10-06T00:01:44.470Z,93.67
2022-10-06T00:04:31.391Z,93.82
2022-10-06T00:07:18.291Z,94.16
2022-10-06T00:10:05.203Z,94.77
2022-10-06T00:13:06.070Z,94.30
2022-10-06T00:15:53.636Z,94.18
2022-10-06T00:18:40.563Z,94.22
2022-10-06T00:21:27.733Z,94.32
2022-10-06T00:24:14.665Z,93.61
2022-10-06T00:27:01.863Z,94.45
2022-10-06T00:29:48.797Z,94.76
2022-10-06T00:32:35.921Z,94.59
2022-10-06T00:35:22.983Z,94.94
2022-10-06T00:38:10.124Z,94.80
2022-10-06T00:41:04.353Z,94.90
2022-10-06T00:44:02.770Z,95.01
2022-10-06T00:47:05.668Z,94.46
2022-10-06T00:49:56.866Z,94.98
2022-10-06T00:52:47.486Z,94.86
2022-10-06T00:55:35.029Z,94.97
2022-10-06T00:58:22.765Z,95.63
2022-10-06T01:01:15.132Z,95.92
2022-10-06T01:04:07.037Z,96.07
2022-10-06T01:07:02.489Z,96.13
2022-10-06T01:09:51.166Z,96.71
2022-10-06T01:12:39.625Z,96.57
2022-10-06T01:15:27.473Z,96.65
2022-10-06T01:18:14.871Z,96.80
2022-10-06T01:21:10.343Z,96.75
2022-10-06T01:23:59.696Z,97.10
2022-10-06T01:26:48.567Z,97.73
2022-10-06T01:29:36.272Z,97.86
2022-10-06T01:32:23.700Z,98.37
2022-10-06T01:35:10.754Z,98.80
2022-10-06T01:37:59.008Z,98.58
2022-10-06T01:40:47.473Z,99.11
2022-10-06T01:43:34.446Z,99.22
2022-10-06T01:46:21.699Z,99.21
2022-10-06T01:49:10.840Z,100.00
2022-10-06T01:51:57.894Z,99.95
2022-10-06T01:54:44.912Z,100.00
2022-10-06T01:57:31.924Z,100.00
2022-10-06T02:00:18.783Z,100.00
2022-10-06T02:03:07.316Z,100.00
2022-10-06T02:05:55.199Z,100.00
2022-10-06T02:08:42.948Z,100.00
2022-10-06T02:11:31.906Z,100.00
2022-10-06T02:14:19.162Z,100.00
2022-10-06T02:17:07.372Z,100.00
2022-10-06T02:19:54.336Z,100.00
2022-10-06T02:22:41.431Z,100.00
2022-10-06T02:25:28.661Z,100.00
2022-10-06T02:28:16.047Z,100.00
2022-10-06T02:31:03.249Z,100.00
2022-10-06T02:33:50.583Z,100.00
2022-10-06T02:36:39.200Z,99.25
2022-10-06T02:39:26.234Z,98.52
2022-10-06T02:42:13.232Z,98.28
2022-10-06T02:45:00.295Z,98.70
2022-10-06T02:47:47.297Z,98.89
2022-10-06T02:50:35.170Z,98.99
2022-10-06T02:53:22.323Z,99.59
2022-10-06T02:56:09.647Z,100.00
2022-10-06T02:58:57.255Z,100.00
2022-10-06T03:01:50.604Z,100.00
2022-10-06T03:04:39.005Z,100.00
2022-10-06T03:07:25.979Z,100.00
2022-10-06T03:10:12.970Z,100.00
2022-10-06T03:13:00.098Z,100.00
2022-10-06T03:15:48.595Z,100.00
2022-10-06T03:18:35.625Z,100.00
2022-10-06T03:21:22.740Z,100.00
2022-10-06T03:24:11.283Z,100.00
2022-10-06T03:27:01.004Z,100.00
2022-10-06T03:29:48.836Z,100.00
2022-10-06T03:32:36.152Z,100.00
2022-10-06T03:35:23.213Z,100.00
2022-10-06T03:38:10.211Z,100.00
2022-10-06T03:40:57.363Z,100.00
2022-10-06T03:43:44.571Z,100.00
2022-10-06T03:46:33.726Z,100.00
2022-10-06T03:49:23.291Z,100.00
2022-10-06T03:52:10.150Z,100.00
2022-10-06T03:54:58.363Z,100.00
2022-10-06T03:57:45.311Z,100.00
2022-10-06T04:00:33.490Z,100.00
2022-10-06T04:03:20.436Z,100.00
2022-10-06T04:06:18.697Z,100.00
2022-10-06T04:09:12.508Z,100.00
2022-10-06T04:12:03.564Z,100.00
2022-10-06T04:14:55.319Z,100.00
2022-10-06T04:17:45.068Z,100.00
2022-10-06T04:20:32.110Z,100.00
2022-10-06T04:23:19.327Z,100.00
2022-10-06T04:26:06.293Z,100.00
2022-10-06T04:28:53.504Z,100.00
2022-10-06T04:31:45.361Z,100.00
2022-10-06T04:34:38.779Z,100.00
2022-10-06T04:37:25.884Z,100.00
2022-10-06T04:40:13.379Z,100.00
2022-10-06T04:43:00.641Z,100.00
2022-10-06T04:45:47.836Z,100.00
2022-10-06T04:48:34.913Z,100.00
2022-10-06T04:51:31.735Z,100.00
2022-10-06T04:54:20.229Z,100.00
2022-10-06T04:57:10.836Z,100.00
2022-10-06T05:00:03.021Z,100.00
2022-10-06T05:02:53.624Z,100.00
2022-10-06T05:05:40.571Z,100.00
2022-10-06T05:08:28.097Z,100.00
2022-10-06T05:11:26.483Z,100.00
2022-10-06T05:14:16.330Z,100.00
2022-10-06T05:17:06.181Z,100.00
2022-10-06T05:19:54.504Z,100.00
2022-10-06T05:22:41.393Z,100.00
2022-10-06T05:25:28.729Z,100.00
2022-10-06T05:28:15.724Z,100.00
2022-10-06T05:31:02.648Z,100.00
2022-10-06T05:33:52.336Z,100.00
2022-10-06T05:36:42.184Z,100.00
2022-10-06T05:39:31.334Z,100.00
2022-10-06T05:42:18.850Z,100.00
2022-10-06T05:45:06.425Z,100.00
2022-10-06T05:47:53.433Z,100.00
2022-10-06T05:50:40.409Z,100.00
2022-10-06T05:53:27.400Z,100.00
2022-10-06T05:56:12.981Z,100.00
2022-10-06T05:58:45.885Z,100.00
2022-10-06T06:01:17.368Z,100.00
2022-10-06T06:04:14.829Z,100.00
2022-10-06T06:07:13.253Z,100.00
2022-10-06T06:10:02.698Z,100.00
2022-10-06T06:12:49.883Z,100.00
2022-10-06T06:15:52.079Z,100.00
2022-10-06T06:18:39.092Z,100.00
2022-10-06T06:21:29.850Z,100.00
2022-10-06T06:24:17.694Z,100.00
2022-10-06T06:27:04.735Z,100.00
2022-10-06T06:29:51.696Z,100.00
2022-10-06T06:32:38.680Z,100.00
2022-10-06T06:35:26.973Z,100.00
2022-10-06T06:38:14.085Z,100.00
2022-10-06T06:41:01.223Z,100.00
2022-10-06T06:43:48.731Z,100.00
2022-10-06T06:47:11.284Z,100.00
2022-10-06T12:44:03.993Z,100.00
2022-10-06T12:47:03.676Z,100.00
2022-10-06T12:50:00.381Z,100.00
2022-10-06T12:53:05.636Z,100.00
2022-10-06T12:55:58.320Z,100.00
2022-10-06T12:58:50.853Z,100.00
2022-10-06T13:01:38.313Z,100.00
2022-10-06T13:04:25.625Z,100.00
2022-10-06T13:07:12.869Z,100.00
2022-10-06T13:10:00.971Z,100.00
2022-10-06T13:12:57.112Z,100.00
2022-10-06T13:15:52.209Z,100.00
2022-10-06T13:18:42.521Z,100.00
2022-10-06T13:21:34.137Z,100.00
2022-10-06T13:24:21.092Z,100.00
2022-10-06T13:27:08.348Z,100.00
2022-10-06T13:29:55.975Z,100.00
2022-10-06T13:32:45.840Z,100.00
2022-10-06T13:35:33.152Z,100.00
2022-10-06T13:38:20.046Z,100.00
2022-10-06T13:41:23.647Z,100.00
2022-10-06T13:44:18.363Z,100.00
2022-10-06T13:47:11.985Z,100.00
2022-10-06T13:50:27.774Z,100.00
2022-10-06T13:53:14.678Z,100.00
2022-10-06T13:56:09.437Z,100.00
2022-10-06T13:58:56.533Z,99.92
2022-10-06T14:01:51.217Z,99.72
2022-10-06T14:04:39.659Z,99.52
2022-10-06T14:07:33.548Z,99.00
2022-10-06T14:10:20.789Z,98.50
2022-10-06T14:13:08.095Z,98.79
2022-10-06T14:16:13.253Z,98.52
2022-10-06T14:19:12.312Z,98.75
2022-10-06T14:22:04.140Z,98.49
2022-10-06T14:24:51.430Z,99.10
2022-10-06T14:27:38.389Z,98.52
2022-10-06T14:30:25.777Z,98.04
2022-10-06T14:33:12.810Z,97.99
2022-10-06T14:35:59.616Z,98.03
2022-10-06T14:38:46.623Z,97.59
2022-10-06T14:41:34.577Z,97.36
2022-10-06T14:44:24.521Z,97.11
2022-10-06T14:47:11.944Z,97.12
2022-10-06T14:49:59.582Z,96.94
2022-10-06T14:52:46.557Z,96.61
2022-10-06T14:55:33.643Z,96.21
2022-10-06T14:58:20.544Z,95.86
2022-10-06T15:01:07.456Z,95.60
2022-10-06T15:03:57.244Z,95.23
2022-10-06T15:06:43.100Z,95.42
2022-10-06T15:09:31.350Z,95.51
2022-10-06T15:12:19.188Z,81.52
2022-10-06T15:15:06.045Z,87.09
2022-10-06T15:17:53.256Z,87.93
2022-10-06T15:20:40.232Z,87.80
2022-10-06T15:23:27.282Z,87.80
2022-10-06T15:26:12.921Z,87.91
2022-10-06T15:28:58.556Z,86.53
2022-10-06T15:31:46.759Z,86.27
2022-10-06T15:34:34.745Z,85.99
2022-10-06T15:37:22.024Z,85.60
2022-10-06T15:40:08.977Z,85.09
2022-10-06T15:42:55.792Z,84.72
2022-10-06T15:45:42.658Z,84.08
2022-10-06T15:48:29.632Z,83.41
2022-10-06T15:51:16.460Z,82.48
2022-10-06T15:54:03.427Z,81.86
2022-10-06T15:56:53.615Z,81.26
2022-10-06T15:59:41.960Z,81.35
2022-10-06T16:02:36.537Z,81.28
2022-10-06T16:05:06.618Z,80.91
2022-10-06T16:07:53.520Z,79.87
2022-10-06T16:10:40.469Z,80.06
2022-10-06T16:13:27.427Z,79.16
2022-10-06T16:16:15.228Z,78.94
2022-10-06T16:19:02.362Z,78.56
2022-10-06T16:21:51.932Z,79.27
2022-10-06T16:24:41.808Z,79.07
2022-10-06T16:27:33.701Z,78.84
2022-10-06T16:30:20.759Z,78.89
2022-10-06T16:33:07.765Z,77.83
2022-10-06T16:35:54.705Z,78.54
2022-10-06T16:38:41.759Z,78.79
2022-10-06T16:41:29.716Z,78.42
2022-10-06T16:44:16.779Z,77.96
2022-10-06T16:47:04.177Z,78.04
2022-10-06T16:49:51.356Z,77.55
2022-10-06T16:52:38.450Z,77.75
2022-10-06T16:55:25.720Z,77.13
2022-10-06T16:58:12.689Z,78.23
2022-10-06T17:00:59.509Z,77.63
2022-10-06T17:03:46.616Z,77.31
2022-10-06T17:06:38.368Z,76.97
2022-10-06T17:09:33.575Z,77.77
2022-10-06T17:12:22.337Z,77.76
2022-10-06T17:15:09.243Z,78.43
2022-10-06T17:17:56.252Z,77.50
2022-10-06T17:20:43.324Z,77.82
2022-10-06T17:23:30.453Z,78.57
2022-10-06T17:26:35.259Z,77.85
2022-10-06T17:29:26.576Z,78.56
2022-10-06T17:32:13.752Z,77.68
2022-10-06T17:35:00.711Z,77.69
2022-10-06T17:37:47.520Z,77.95
2022-10-06T17:40:34.731Z,77.01
2022-10-06T17:43:21.626Z,77.80
2022-10-06T17:46:08.779Z,77.53
2022-10-06T17:48:55.644Z,76.47
2022-10-06T17:51:45.355Z,76.09
2022-10-06T17:54:33.928Z,75.96
2022-10-06T17:57:21.056Z,75.93
2022-10-06T18:00:08.012Z,77.11
2022-10-06T18:02:58.732Z,77.05
2022-10-06T18:05:46.577Z,76.01
2022-10-06T18:08:33.704Z,76.63
2022-10-06T18:11:19.531Z,75.82
2022-10-06T18:14:07.629Z,76.24
2022-10-06T18:17:03.050Z,75.84
2022-10-06T18:19:52.193Z,75.64
2022-10-06T18:22:39.593Z,76.33
2022-10-06T18:25:27.165Z,76.13
2022-10-06T18:28:14.034Z,75.24
2022-10-06T18:31:01.460Z,74.90
2022-10-06T18:36:55.386Z,75.25
2022-10-06T18:39:42.378Z,75.75
2022-10-06T18:42:29.422Z,75.85
2022-10-06T18:45:14.759Z,75.53
2022-10-06T18:47:59.987Z,75.93
2022-10-06T18:50:46.998Z,75.52
2022-10-06T18:53:33.848Z,74.94
2022-10-06T18:56:20.807Z,74.73
2022-10-06T18:59:07.951Z,75.22
2022-10-06T19:01:55.314Z,74.97
2022-10-06T19:04:43.328Z,75.38
2022-10-06T19:07:30.276Z,75.52
2022-10-06T19:10:17.269Z,74.45
2022-10-06T19:13:04.244Z,74.80
2022-10-06T19:15:51.295Z,74.18
2022-10-06T19:18:38.192Z,74.66
2022-10-06T19:21:25.475Z,75.07
2022-10-06T19:24:12.339Z,74.67
2022-10-06T19:27:00.387Z,74.14
2022-10-06T19:29:48.033Z,74.18
2022-10-06T19:32:38.141Z,74.55
2022-10-06T19:35:25.229Z,73.61
2022-10-06T19:38:12.268Z,74.70
2022-10-06T19:40:59.175Z,74.28
2022-10-06T19:43:46.020Z,73.76
2022-10-06T19:46:32.856Z,74.73
2022-10-06T19:49:19.799Z,74.79
2022-10-06T19:52:06.748Z,74.65
2022-10-06T19:54:54.804Z,74.89
2022-10-06T19:57:42.602Z,74.49
2022-10-06T20:00:30.347Z,74.14
2022-10-06T20:03:17.200Z,74.74
2022-10-06T20:06:04.299Z,74.50
2022-10-06T20:08:51.160Z,74.49
2022-10-06T20:11:42.560Z,74.56
2022-10-06T20:14:35.440Z,74.63
2022-10-06T20:17:22.495Z,74.90
2022-10-06T20:20:09.330Z,74.38
2022-10-06T20:22:56.252Z,74.08
2022-10-06T20:25:43.047Z,74.31
2022-10-06T20:28:30.087Z,74.45
2022-10-06T20:31:17.057Z,74.48
2022-10-06T20:34:04.109Z,75.79
2022-10-06T20:36:55.849Z,75.47
2022-10-06T20:39:42.555Z,74.76
2022-10-06T20:42:30.224Z,75.51
2022-10-06T20:45:17.028Z,75.30
2022-10-06T20:48:03.844Z,74.79
2022-10-06T20:50:51.233Z,75.13
2022-10-06T20:53:38.123Z,75.75
2022-10-06T20:56:26.582Z,76.33
2022-10-06T20:59:14.120Z,75.65
2022-10-06T21:02:01.193Z,76.46
2022-10-06T21:04:48.647Z,76.12
2022-10-06T21:07:36.122Z,76.42
2022-10-06T21:10:23.126Z,76.34
2022-10-06T21:13:10.334Z,76.53
2022-10-06T21:15:45.159Z,75.76
2022-10-06T21:18:12.347Z,76.07
2022-10-06T21:20:44.407Z,76.23
2022-10-06T21:23:13.382Z,75.95
2022-10-06T21:25:40.265Z,76.50
2022-10-06T21:28:07.391Z,75.45
2022-10-06T21:30:36.245Z,75.97
2022-10-06T21:33:03.638Z,76.13
2022-10-06T21:35:30.659Z,75.26
2022-10-06T21:37:57.582Z,75.00
2022-10-06T21:40:24.424Z,75.91
2022-10-06T21:42:51.374Z,75.99
2022-10-06T21:45:20.973Z,75.36
2022-10-06T21:47:50.118Z,75.54
2022-10-06T21:50:17.077Z,76.27
2022-10-06T21:52:44.851Z,75.43
2022-10-06T21:55:11.751Z,76.45
2022-10-06T21:57:38.980Z,75.88
2022-10-06T22:00:11.101Z,75.91
2022-10-06T22:02:39.800Z,75.67
2022-10-06T22:05:06.919Z,76.54
2022-10-06T22:07:33.849Z,75.73
2022-10-06T22:10:00.802Z,75.43
2022-10-06T22:12:27.619Z,76.13
2022-10-06T22:14:58.806Z,75.86
2022-10-06T22:17:26.699Z,76.45
2022-10-06T22:19:53.646Z,76.17
2022-10-06T22:22:20.598Z,76.36
2022-10-06T22:24:47.554Z,76.31
2022-10-06T22:27:14.491Z,75.54
2022-10-06T22:29:42.611Z,76.30
2022-10-06T22:32:09.718Z,75.70
2022-10-06T22:34:36.887Z,76.25
2022-10-06T22:37:04.144Z,75.69
2022-10-06T22:39:31.030Z,76.18
2022-10-06T22:41:57.898Z,75.87
2022-10-06T22:44:24.761Z,76.17
2022-10-06T22:46:51.732Z,76.05
2022-10-06T22:49:19.439Z,76.07
2022-10-06T22:51:46.308Z,76.91
2022-10-06T22:54:17.690Z,76.63
2022-10-06T22:56:45.050Z,77.42
2022-10-06T22:59:12.034Z,76.58
2022-10-06T23:01:38.995Z,77.51
2022-10-06T23:04:05.878Z,77.06
2022-10-06T23:06:33.679Z,76.65
2022-10-06T23:09:02.178Z,76.99
2022-10-06T23:11:29.151Z,77.88
2022-10-06T23:13:56.154Z,77.14
2022-10-06T23:16:23.557Z,77.70
2022-10-06T23:18:50.829Z,78.37
2022-10-06T23:21:22.917Z,78.46
2022-10-06T23:23:52.464Z,77.59
2022-10-06T23:26:20.224Z,78.45
2022-10-06T23:28:55.774Z,77.71
2022-10-06T23:31:22.818Z,78.48
2022-10-06T23:33:49.782Z,78.04
2022-10-06T23:36:17.959Z,78.16
2022-10-06T23:38:45.490Z,77.53
2022-10-06T23:41:13.280Z,78.22
2022-10-06T23:43:40.624Z,77.70
2022-10-06T23:46:07.998Z,77.92
2022-10-06T23:48:35.095Z,77.52
2022-10-06T23:51:14.200Z,77.84
2022-10-06T23:53:41.873Z,77.95
2022-10-06T23:56:09.046Z,77.65
2022-10-06T23:58:36.178Z,77.59
